createdAt,value
2019-05-20T00:00:04.078Z,1.80
2019-05-20T00:02:35.103Z,1.65
2019-05-20T00:05:12.323Z,2.25
2019-05-20T00:07:42.907Z,3.27
2019-05-20T00:10:13.609Z,2.33
2019-05-20T00:12:43.728Z,1.60
2019-05-20T00:15:15.455Z,1.77
2019-05-20T00:18:08.588Z,2.20
2019-05-20T00:20:40.429Z,3.05
2019-05-20T00:23:10.877Z,4.15
2019-05-20T00:25:42.882Z,1.85
2019-05-20T00:28:13.014Z,2.00
2019-05-20T00:30:43.939Z,2.37
2019-05-20T00:33:14.434Z,2.27
2019-05-20T00:35:48.783Z,2.77
2019-05-20T00:38:19.582Z,2.25
2019-05-20T00:40:51.399Z,2.45
2019-05-20T00:43:22.701Z,2.00
2019-05-20T00:45:59.496Z,3.17
2019-05-20T00:48:35.559Z,2.45
2019-05-20T00:51:36.474Z,1.32
2019-05-20T00:54:09.473Z,2.95
2019-05-20T00:56:41.303Z,2.20
2019-05-20T00:59:15.330Z,2.58
2019-05-20T01:01:45.486Z,1.80
2019-05-20T01:04:17.030Z,1.35
2019-05-20T01:07:02.498Z,1.52
2019-05-20T01:09:40.607Z,1.95
2019-05-20T01:12:42.233Z,1.90
2019-05-20T01:15:31.038Z,4.20
2019-05-20T01:18:06.734Z,2.10
2019-05-20T01:20:43.541Z,1.95
2019-05-20T01:23:20.395Z,2.15
2019-05-20T01:26:03.492Z,2.25
2019-05-20T01:29:09.307Z,1.65
2019-05-20T01:31:52.532Z,1.45
2019-05-20T01:34:43.130Z,2.00
2019-05-20T01:37:54.682Z,1.25
2019-05-20T01:41:34.067Z,1.42
2019-05-20T01:45:03.188Z,1.25
2019-05-20T01:51:24.239Z,1.52
2019-05-20T01:54:39.456Z,1.32
2019-05-20T01:58:02.459Z,2.45
2019-05-20T03:41:31.111Z,2.55
2019-05-20T03:47:25.435Z,2.22
2019-05-20T03:49:58.726Z,2.17
2019-05-20T03:52:31.640Z,2.90
2019-05-20T03:55:04.943Z,2.55
2019-05-20T03:57:38.257Z,2.20
2019-05-20T04:00:09.102Z,2.55
2019-05-20T04:02:39.754Z,2.47
2019-05-20T04:05:14.836Z,2.80
2019-05-20T04:07:51.438Z,2.67
2019-05-20T04:10:24.198Z,3.52
2019-05-20T04:13:00.627Z,3.67
2019-05-20T04:15:32.421Z,2.33
2019-05-20T04:18:04.712Z,2.40
2019-05-20T04:20:40.754Z,2.90
2019-05-20T04:23:11.704Z,2.47
2019-05-20T04:25:44.998Z,4.15
2019-05-20T04:28:17.710Z,2.40
2019-05-20T04:30:48.634Z,3.92
2019-05-20T04:33:19.200Z,2.90
2019-05-20T04:35:49.976Z,2.35
2019-05-20T04:38:20.565Z,2.58
2019-05-20T04:40:50.960Z,2.85
2019-05-20T04:43:46.638Z,2.37
2019-05-20T04:46:16.888Z,2.70
2019-05-20T04:48:50.237Z,3.37
2019-05-20T04:51:24.497Z,5.55
2019-05-20T04:53:55.267Z,3.10
2019-05-20T04:56:29.005Z,3.15
2019-05-20T04:58:59.834Z,2.87
2019-05-20T05:01:33.919Z,3.10
2019-05-20T05:04:08.478Z,2.60
2019-05-20T05:06:39.357Z,2.35
2019-05-20T05:09:11.360Z,3.65
2019-05-20T05:11:49.412Z,3.05
2019-05-20T05:14:22.558Z,2.62
2019-05-20T05:16:53.957Z,4.55
2019-05-20T05:19:25.747Z,3.12
2019-05-20T05:21:57.659Z,3.08
2019-05-20T05:24:29.004Z,3.95
2019-05-20T05:26:59.212Z,4.45
2019-05-20T05:29:36.743Z,2.35
2019-05-20T05:32:06.324Z,3.12
2019-05-20T05:34:40.279Z,2.90
2019-05-20T05:37:12.570Z,2.52
2019-05-20T05:39:43.153Z,2.95
2019-05-20T05:42:13.407Z,2.60
2019-05-20T05:44:43.543Z,2.92
2019-05-20T05:47:16.261Z,7.83
2019-05-20T05:49:49.513Z,3.90
2019-05-20T05:52:22.924Z,2.30
2019-05-20T05:54:53.425Z,3.12
2019-05-20T05:57:25.334Z,3.70
2019-05-20T06:00:00.778Z,2.83
2019-05-20T06:02:31.236Z,2.92
2019-05-20T06:05:01.351Z,2.85
2019-05-20T06:07:32.324Z,3.45
2019-05-20T06:10:03.379Z,2.98
2019-05-20T06:12:37.644Z,5.67
2019-05-20T06:15:10.685Z,3.08
2019-05-20T06:17:43.493Z,3.50
2019-05-20T06:20:35.171Z,5.30
2019-05-20T06:23:09.776Z,3.10
2019-05-20T06:26:01.516Z,3.27
2019-05-20T06:28:37.315Z,4.50
2019-05-20T06:31:10.746Z,3.17
2019-05-20T06:33:41.243Z,3.65
2019-05-20T06:36:26.070Z,3.17
2019-05-20T06:39:10.049Z,6.50
2019-05-20T06:41:45.254Z,3.90
2019-05-20T06:44:15.614Z,4.10
2019-05-20T06:46:51.863Z,3.58
2019-05-20T06:49:28.367Z,3.75
2019-05-20T06:52:37.205Z,5.12
2019-05-20T06:55:35.189Z,4.03
2019-05-20T06:58:07.121Z,5.47
2019-05-20T07:00:41.361Z,6.10
2019-05-20T07:03:12.339Z,6.97
2019-05-20T07:05:42.919Z,8.08
2019-05-20T07:08:16.739Z,10.23
2019-05-20T07:10:49.444Z,10.70
2019-05-20T07:13:23.733Z,12.25
2019-05-20T07:15:56.640Z,9.48
2019-05-20T07:18:30.490Z,11.18
2019-05-20T07:21:02.070Z,10.10
2019-05-20T07:23:34.037Z,9.85
2019-05-20T07:26:05.063Z,10.00
2019-05-20T07:28:36.811Z,13.30
2019-05-20T07:35:32.794Z,13.30
2019-05-20T07:44:58.359Z,11.93
2019-05-20T07:47:30.877Z,10.70
2019-05-20T07:50:23.670Z,11.28
2019-05-20T07:53:00.440Z,12.37
2019-05-20T07:55:32.667Z,12.50
2019-05-20T07:58:07.441Z,11.00
2019-05-20T08:00:38.494Z,11.35
2019-05-20T08:03:09.401Z,11.45
2019-05-20T08:05:39.971Z,12.15
2019-05-20T08:11:48.859Z,13.85
2019-05-20T08:14:27.108Z,12.07
2019-05-20T08:17:00.423Z,11.80
2019-05-20T08:19:36.820Z,12.82
2019-05-20T08:22:18.236Z,11.93
2019-05-20T08:24:51.686Z,15.08
2019-05-20T08:27:49.040Z,12.53
2019-05-20T08:30:33.249Z,14.45
2019-05-20T08:33:27.568Z,14.10
2019-05-20T08:36:29.599Z,15.28
2019-05-20T08:43:01.694Z,13.98
2019-05-20T08:49:47.179Z,15.88
2019-05-20T11:15:48.900Z,24.80
2019-05-20T11:19:21.179Z,21.02
2019-05-20T11:21:53.084Z,20.12
2019-05-20T11:29:02.611Z,23.85
2019-05-20T12:15:32.137Z,27.00
2019-05-20T13:59:39.235Z,31.05
2019-05-20T14:02:11.300Z,28.30
2019-05-20T14:04:41.922Z,28.73
2019-05-20T14:07:12.338Z,25.90
2019-05-20T14:09:45.900Z,26.55
2019-05-20T14:12:17.684Z,28.23
2019-05-20T14:14:50.086Z,24.57
2019-05-20T14:17:22.347Z,27.75
2019-05-20T14:19:53.679Z,25.27
2019-05-20T14:22:23.969Z,25.20
2019-05-20T14:24:55.487Z,25.97
2019-05-20T14:27:26.764Z,28.00
2019-05-20T14:29:57.186Z,28.27
2019-05-20T14:32:30.073Z,24.40
2019-05-20T14:35:02.304Z,26.52
2019-05-20T14:37:34.650Z,26.50
2019-05-20T14:40:08.327Z,26.75
2019-05-20T14:42:39.338Z,23.85
2019-05-20T14:45:09.663Z,26.02
2019-05-20T14:47:41.148Z,27.62
2019-05-20T14:50:14.396Z,26.52
2019-05-20T14:52:45.557Z,28.75
2019-05-20T14:55:18.457Z,26.02
2019-05-20T14:57:53.169Z,25.27
2019-05-20T15:00:25.731Z,27.15
2019-05-20T15:03:03.603Z,30.40
2019-05-20T15:05:36.867Z,27.52
2019-05-20T15:08:07.197Z,30.00
2019-05-20T15:10:40.203Z,30.20
2019-05-20T15:13:14.376Z,28.75
2019-05-20T15:15:48.340Z,28.38
2019-05-20T15:18:20.759Z,34.95
2019-05-20T15:21:21.424Z,28.45
2019-05-20T15:23:56.872Z,24.98
2019-05-20T15:27:13.609Z,28.10
2019-05-20T15:29:54.886Z,25.55
2019-05-20T15:32:28.045Z,25.37
2019-05-20T15:35:02.981Z,24.27
2019-05-20T15:37:35.017Z,22.67
2019-05-20T15:40:07.515Z,23.27
2019-05-20T15:43:02.729Z,24.65
2019-05-20T15:57:37.769Z,22.90
2019-05-20T16:06:32.961Z,21.45
2019-05-20T16:23:51.179Z,22.32
2019-05-20T16:30:59.785Z,24.87
2019-05-20T16:38:07.316Z,24.07
2019-05-20T16:47:49.054Z,27.62
2019-05-20T16:54:12.939Z,27.13
2019-05-20T16:57:24.824Z,26.70
2019-05-20T17:22:36.207Z,31.17
2019-05-20T17:25:09.878Z,32.48
2019-05-20T17:27:44.942Z,33.80
2019-05-20T17:30:45.816Z,30.12
2019-05-20T17:33:20.834Z,34.30
2019-05-20T17:35:51.185Z,36.35
2019-05-20T17:38:22.407Z,36.28
2019-05-20T17:40:56.154Z,36.08
2019-05-20T17:43:29.572Z,43.20
2019-05-20T17:46:01.485Z,36.68
2019-05-20T17:48:34.261Z,43.23
2019-05-20T17:51:06.074Z,48.73
2019-05-20T17:53:40.035Z,40.92
2019-05-20T17:56:12.730Z,41.15
2019-05-20T17:58:43.286Z,36.10
2019-05-20T18:01:15.912Z,40.15
2019-05-20T18:03:45.809Z,33.15
2019-05-20T18:06:18.970Z,36.38
2019-05-20T18:08:52.420Z,36.53
2019-05-20T18:11:22.899Z,40.40
2019-05-20T18:14:03.176Z,42.03
2019-05-20T18:16:36.949Z,40.50
2019-05-20T18:19:11.291Z,37.88
2019-05-20T18:21:45.170Z,34.78
2019-05-20T18:24:17.881Z,36.48
2019-05-20T18:26:50.217Z,41.00
2019-05-20T18:29:22.437Z,42.35
2019-05-20T18:32:06.552Z,43.80
2019-05-20T18:34:32.515Z,32.30
2019-05-20T18:37:03.726Z,49.53
2019-05-20T18:39:34.338Z,39.40
2019-05-20T18:42:04.774Z,42.60
2019-05-20T18:44:36.278Z,38.70
2019-05-20T18:47:06.529Z,37.03
2019-05-20T18:49:36.651Z,41.63
2019-05-20T18:52:07.447Z,40.03
2019-05-20T18:54:38.043Z,36.08
2019-05-20T18:57:09.230Z,39.15
2019-05-20T18:59:39.348Z,39.05
2019-05-20T19:02:11.344Z,37.55
2019-05-20T19:04:41.967Z,40.63
2019-05-20T19:07:12.127Z,47.40
2019-05-20T19:09:42.664Z,45.28
2019-05-20T19:12:18.382Z,52.73
2019-05-20T19:14:51.050Z,45.33
2019-05-20T19:17:24.049Z,57.93
2019-05-20T19:19:54.238Z,50.80
2019-05-20T19:22:28.096Z,57.62
2019-05-20T19:25:01.397Z,65.83
2019-05-20T19:27:36.805Z,60.12
2019-05-20T19:30:21.939Z,67.62
2019-05-20T19:33:00.791Z,62.83
2019-05-20T19:35:36.682Z,63.13
2019-05-20T19:38:09.962Z,67.03
2019-05-20T19:40:40.178Z,71.25
2019-05-20T19:43:17.164Z,70.40
2019-05-20T19:45:49.597Z,80.45
2019-05-20T19:48:45.478Z,70.12
2019-05-20T19:54:50.865Z,85.20
2019-05-20T19:57:25.299Z,70.25
2019-05-20T20:00:33.589Z,71.97
2019-05-20T20:03:11.522Z,77.27
2019-05-20T20:05:42.157Z,67.95
2019-05-20T20:08:17.197Z,80.22
2019-05-20T20:10:49.992Z,77.90
2019-05-20T20:13:20.566Z,73.85
2019-05-20T20:15:51.840Z,74.27
2019-05-20T20:18:23.474Z,85.62
2019-05-20T20:21:00.859Z,82.57
2019-05-20T20:23:31.099Z,77.05
2019-05-20T20:26:04.830Z,70.70
2019-05-20T20:28:36.948Z,80.05
2019-05-20T20:31:12.089Z,77.32
2019-05-20T20:33:43.402Z,67.00
2019-05-20T20:36:21.247Z,67.53
2019-05-20T20:38:50.588Z,77.15
2019-05-20T20:41:21.857Z,73.52
2019-05-20T20:43:55.086Z,75.25
2019-05-20T20:46:25.434Z,69.97
2019-05-20T20:49:02.819Z,77.65
2019-05-20T20:51:35.499Z,80.53
2019-05-20T20:54:12.280Z,73.60
2019-05-20T20:56:41.463Z,77.95
2019-05-20T20:59:22.484Z,67.30
2019-05-20T21:01:55.472Z,52.45
2019-05-20T21:04:51.425Z,49.67
2019-05-20T21:07:29.019Z,58.87
2019-05-20T21:10:06.651Z,65.67
2019-05-20T21:12:44.053Z,73.02
2019-05-20T21:15:14.639Z,69.50
2019-05-20T21:17:44.845Z,67.42
2019-05-20T21:23:24.453Z,70.62
2019-05-20T21:25:59.207Z,57.48
2019-05-20T21:28:30.454Z,74.62
2019-05-20T21:31:04.053Z,67.00
2019-05-20T21:33:50.915Z,67.60
2019-05-20T21:36:21.749Z,64.82
2019-05-20T21:38:56.596Z,77.20
2019-05-20T21:41:27.158Z,62.78
2019-05-20T21:44:14.538Z,69.60
2019-05-20T21:47:09.872Z,62.73
2019-05-20T21:49:42.627Z,60.28
2019-05-20T21:52:18.820Z,57.38
2019-05-20T21:54:54.693Z,62.90
2019-05-20T21:57:34.933Z,64.20
2019-05-20T22:00:15.564Z,60.28
2019-05-20T22:02:58.884Z,57.50
2019-05-20T22:05:32.632Z,59.10
2019-05-20T22:08:18.112Z,51.83
2019-05-20T22:10:52.221Z,59.85
2019-05-20T22:13:25.318Z,55.80
2019-05-20T22:15:57.667Z,50.98
2019-05-20T22:18:30.699Z,55.75
2019-05-20T22:21:05.722Z,45.43
2019-05-20T22:23:42.403Z,41.02
2019-05-20T22:26:12.842Z,34.15
2019-05-20T22:28:43.241Z,40.55
2019-05-20T22:31:16.417Z,39.70
2019-05-20T22:33:47.059Z,38.80
2019-05-20T22:36:17.346Z,37.83
2019-05-20T22:38:47.769Z,31.15
2019-05-20T22:41:23.728Z,30.92
2019-05-20T22:43:54.092Z,31.82
2019-05-20T22:46:25.218Z,32.10
2019-05-20T22:48:56.380Z,35.40
2019-05-20T22:51:27.239Z,28.42
2019-05-20T22:53:57.350Z,30.75
2019-05-20T22:56:28.899Z,30.08
2019-05-20T22:59:02.203Z,28.50
2019-05-20T23:01:34.560Z,27.35
2019-05-20T23:04:06.513Z,21.70
2019-05-20T23:06:38.630Z,23.60
2019-05-20T23:09:11.003Z,22.52
2019-05-20T23:11:43.956Z,16.45
2019-05-20T23:14:18.338Z,23.73
2019-05-20T23:16:50.560Z,17.02
2019-05-20T23:19:23.021Z,15.30
2019-05-20T23:21:53.700Z,17.30
2019-05-20T23:24:25.488Z,12.10
2019-05-20T23:26:56.688Z,20.05
2019-05-20T23:29:30.147Z,19.60
2019-05-20T23:32:07.401Z,18.35
2019-05-20T23:34:38.376Z,17.98
2019-05-20T23:37:08.778Z,20.48
2019-05-20T23:39:44.961Z,20.15
2019-05-20T23:42:18.087Z,24.15
2019-05-20T23:44:49.405Z,22.77
2019-05-20T23:47:22.359Z,23.83
2019-05-20T23:50:03.744Z,21.85
2019-05-20T23:53:17.594Z,26.87
